sensor_id;sensor_type;location;lat;lon;timestamp;pressure;altitude;pressure_sealevel;temperature;humidity
61345;BME280;47216;42.656;23.232;2023-02-16T00:00:50;95081.66;;;1.23;66.65
61345;BME280;47216;42.656;23.232;2023-02-16T00:03:17;95076.22;;;1.35;66.47
61345;BME280;47216;42.656;23.232;2023-02-16T00:05:44;95079.59;;;1.43;66.18
61345;BME280;47216;42.656;23.232;2023-02-16T00:08:10;95080.72;;;1.49;66.36
61345;BME280;47216;42.656;23.232;2023-02-16T00:10:37;95082.31;;;1.50;65.84
61345;BME280;47216;42.656;23.232;2023-02-16T00:13:09;95084.59;;;1.53;65.63
61345;BME280;47216;42.656;23.232;2023-02-16T00:15:59;95086.19;;;1.54;65.66
61345;BME280;47216;42.656;23.232;2023-02-16T00:18:25;95076.06;;;1.61;65.86
61345;BME280;47216;42.656;23.232;2023-02-16T00:20:52;95077.81;;;1.68;65.68
61345;BME280;47216;42.656;23.232;2023-02-16T00:23:18;95079.91;;;1.73;65.56
61345;BME280;47216;42.656;23.232;2023-02-16T00:25:45;95075.41;;;1.83;65.14
61345;BME280;47216;42.656;23.232;2023-02-16T00:28:13;95076.84;;;1.86;64.98
61345;BME280;47216;42.656;23.232;2023-02-16T00:30:41;95071.06;;;1.84;64.59
61345;BME280;47216;42.656;23.232;2023-02-16T00:33:13;95079.56;;;1.84;65.08
61345;BME280;47216;42.656;23.232;2023-02-16T00:35:40;95079.75;;;1.83;64.77
61345;BME280;47216;42.656;23.232;2023-02-16T00:38:07;95077.66;;;1.78;65.31
61345;BME280;47216;42.656;23.232;2023-02-16T00:40:33;95084.25;;;1.81;65.49
61345;BME280;47216;42.656;23.232;2023-02-16T00:43:00;95083.28;;;1.82;65.01
61345;BME280;47216;42.656;23.232;2023-02-16T00:45:26;95076.53;;;1.81;65.00
61345;BME280;47216;42.656;23.232;2023-02-16T00:47:53;95078.47;;;1.71;64.72
61345;BME280;47216;42.656;23.232;2023-02-16T00:50:22;95082.16;;;1.68;65.23
61345;BME280;47216;42.656;23.232;2023-02-16T00:52:49;95081.38;;;1.67;65.43
61345;BME280;47216;42.656;23.232;2023-02-16T00:55:17;95079.78;;;1.66;64.72
61345;BME280;47216;42.656;23.232;2023-02-16T00:57:44;95077.50;;;1.63;65.73
61345;BME280;47216;42.656;23.232;2023-02-16T01:00:14;95073.00;;;1.65;64.92
61345;BME280;47216;42.656;23.232;2023-02-16T01:02:42;95074.28;;;1.70;65.60
61345;BME280;47216;42.656;23.232;2023-02-16T01:05:09;95068.66;;;1.66;65.43
61345;BME280;47216;42.656;23.232;2023-02-16T01:07:37;95073.31;;;1.71;65.21
61345;BME280;47216;42.656;23.232;2023-02-16T01:10:21;95071.41;;;1.64;64.73
61345;BME280;47216;42.656;23.232;2023-02-16T01:13:06;95071.41;;;1.56;65.21
61345;BME280;47216;42.656;23.232;2023-02-16T01:15:32;95078.16;;;1.49;65.30
61345;BME280;47216;42.656;23.232;2023-02-16T01:17:59;95070.78;;;1.46;65.15
61345;BME280;47216;42.656;23.232;2023-02-16T01:20:26;95068.84;;;1.40;65.35
61345;BME280;47216;42.656;23.232;2023-02-16T01:22:54;95057.59;;;1.41;65.62
61345;BME280;47216;42.656;23.232;2023-02-16T01:25:21;95026.59;;;1.26;65.51
61345;BME280;47216;42.656;23.232;2023-02-16T01:27:47;95048.91;;;1.50;65.38
61345;BME280;47216;42.656;23.232;2023-02-16T01:30:15;95047.63;;;1.54;65.12
61345;BME280;47216;42.656;23.232;2023-02-16T01:32:42;95040.91;;;1.53;64.91
61345;BME280;47216;42.656;23.232;2023-02-16T01:35:13;95038.81;;;1.49;65.71
61345;BME280;47216;42.656;23.232;2023-02-16T01:37:39;95042.50;;;1.46;64.92
61345;BME280;47216;42.656;23.232;2023-02-16T01:40:10;95039.28;;;1.44;65.24
61345;BME280;47216;42.656;23.232;2023-02-16T01:42:46;95029.97;;;1.35;65.54
61345;BME280;47216;42.656;23.232;2023-02-16T01:45:17;95032.53;;;1.35;65.84
61345;BME280;47216;42.656;23.232;2023-02-16T01:47:46;95032.22;;;1.30;65.96
61345;BME280;47216;42.656;23.232;2023-02-16T01:50:16;95029.00;;;1.28;65.96
61345;BME280;47216;42.656;23.232;2023-02-16T01:52:44;95037.03;;;1.33;65.69
61345;BME280;47216;42.656;23.232;2023-02-16T01:55:15;95031.56;;;1.19;66.12
61345;BME280;47216;42.656;23.232;2023-02-16T01:57:44;95031.59;;;1.11;65.71
61345;BME280;47216;42.656;23.232;2023-02-16T02:00:14;95033.47;;;1.01;66.51
61345;BME280;47216;42.656;23.232;2023-02-16T02:02:42;95029.78;;;1.03;66.61
61345;BME280;47216;42.656;23.232;2023-02-16T02:05:16;95033.19;;;1.04;66.81
61345;BME280;47216;42.656;23.232;2023-02-16T02:08:00;95034.94;;;1.12;66.44
61345;BME280;47216;42.656;23.232;2023-02-16T02:10:33;95034.94;;;1.12;66.77
61345;BME280;47216;42.656;23.232;2023-02-16T02:13:02;95031.25;;;1.14;66.50
61345;BME280;47216;42.656;23.232;2023-02-16T02:15:30;95031.25;;;1.14;67.11
61345;BME280;47216;42.656;23.232;2023-02-16T02:17:57;95026.59;;;1.18;66.42
61345;BME280;47216;42.656;23.232;2023-02-16T02:20:24;95024.81;;;1.26;66.69
61345;BME280;47216;42.656;23.232;2023-02-16T02:23:17;95020.81;;;1.32;66.28
61345;BME280;47216;42.656;23.232;2023-02-16T02:28:41;95018.56;;;1.29;66.58
61345;BME280;47216;42.656;23.232;2023-02-16T02:31:13;95021.13;;;1.29;66.28
61345;BME280;47216;42.656;23.232;2023-02-16T02:33:46;95023.06;;;1.27;66.57
61345;BME280;47216;42.656;23.232;2023-02-16T02:36:20;95019.19;;;1.31;66.59
61345;BME280;47216;42.656;23.232;2023-02-16T02:38:50;95029.31;;;1.24;66.10
61345;BME280;47216;42.656;23.232;2023-02-16T02:41:22;95023.22;;;1.17;66.42
61345;BME280;47216;42.656;23.232;2023-02-16T02:44:11;95032.34;;;1.03;66.25
61345;BME280;47216;42.656;23.232;2023-02-16T02:46:38;95020.63;;;1.01;66.49
61345;BME280;47216;42.656;23.232;2023-02-16T02:49:04;95029.94;;;0.86;66.80
61345;BME280;47216;42.656;23.232;2023-02-16T02:51:31;95031.53;;;0.87;67.51
61345;BME280;47216;42.656;23.232;2023-02-16T02:53:59;95029.94;;;0.86;67.18
61345;BME280;47216;42.656;23.232;2023-02-16T02:56:46;95027.84;;;0.81;67.21
61345;BME280;47216;42.656;23.232;2023-02-16T02:59:32;95031.97;;;0.74;67.04
61345;BME280;47216;42.656;23.232;2023-02-16T03:02:18;95038.22;;;0.71;67.02
61345;BME280;47216;42.656;23.232;2023-02-16T03:04:47;95042.72;;;0.61;66.93
61345;BME280;47216;42.656;23.232;2023-02-16T03:07:13;95040.75;;;0.55;66.83
61345;BME280;47216;42.656;23.232;2023-02-16T03:09:40;95052.00;;;0.54;66.82
61345;BME280;47216;42.656;23.232;2023-02-16T03:12:07;95047.97;;;0.51;67.21
61345;BME280;47216;42.656;23.232;2023-02-16T03:14:53;95041.22;;;0.50;67.03
61345;BME280;47216;42.656;23.232;2023-02-16T03:17:21;95040.09;;;0.45;66.84
61345;BME280;47216;42.656;23.232;2023-02-16T03:20:10;95047.41;;;0.31;67.25
61345;BME280;47216;42.656;23.232;2023-02-16T03:22:55;95038.25;;;0.29;67.43
61345;BME280;47216;42.656;23.232;2023-02-16T03:25:39;95034.53;;;0.15;67.68
61345;BME280;47216;42.656;23.232;2023-02-16T03:28:24;95033.88;;;0.13;67.77
61345;BME280;47216;42.656;23.232;2023-02-16T03:31:10;95024.84;;;0.01;67.88
61345;BME280;47216;42.656;23.232;2023-02-16T03:33:38;95027.66;;;-0.11;68.70
61345;BME280;47216;42.656;23.232;2023-02-16T03:36:05;95020.63;;;-0.09;68.74
61345;BME280;47216;42.656;23.232;2023-02-16T03:38:32;95018.91;;;0.00;68.91
61345;BME280;47216;42.656;23.232;2023-02-16T03:40:59;95022.09;;;0.02;68.52
61345;BME280;47216;42.656;23.232;2023-02-16T03:43:26;95018.72;;;-0.07;68.79
61345;BME280;47216;42.656;23.232;2023-02-16T03:45:53;95028.34;;;-0.01;68.68
61345;BME280;47216;42.656;23.232;2023-02-16T03:48:21;95031.63;;;0.10;68.42
61345;BME280;47216;42.656;23.232;2023-02-16T03:50:48;95024.38;;;0.05;68.09
61345;BME280;47216;42.656;23.232;2023-02-16T03:53:14;95025.84;;;0.08;67.72
61345;BME280;47216;42.656;23.232;2023-02-16T03:55:43;95026.50;;;0.10;67.70
61345;BME280;47216;42.656;23.232;2023-02-16T03:58:11;95026.13;;;0.05;68.00
61345;BME280;47216;42.656;23.232;2023-02-16T04:00:38;95022.47;;;0.07;67.70
61345;BME280;47216;42.656;23.232;2023-02-16T04:03:05;95024.84;;;0.01;67.85
61345;BME280;47216;42.656;23.232;2023-02-16T04:05:34;95026.41;;;-0.07;67.89
61345;BME280;47216;42.656;23.232;2023-02-16T04:08:01;95023.03;;;-0.07;67.76
61345;BME280;47216;42.656;23.232;2023-02-16T04:10:27;95021.94;;;-0.05;67.73
61345;BME280;47216;42.656;23.232;2023-02-16T04:12:54;95024.97;;;-0.09;67.60
61345;BME280;47216;42.656;23.232;2023-02-16T04:15:20;95018.97;;;-0.18;68.18
61345;BME280;47216;42.656;23.232;2023-02-16T04:17:47;95010.78;;;-0.22;68.11
61345;BME280;47216;42.656;23.232;2023-02-16T04:20:15;95008.22;;;-0.22;68.09
61345;BME280;47216;42.656;23.232;2023-02-16T04:22:43;95009.28;;;-0.32;68.69
61345;BME280;47216;42.656;23.232;2023-02-16T04:25:10;95005.56;;;-0.38;69.01
61345;BME280;47216;42.656;23.232;2023-02-16T04:27:37;95001.44;;;-0.31;68.98
61345;BME280;47216;42.656;23.232;2023-02-16T04:30:05;95004.53;;;-0.19;69.03
61345;BME280;47216;42.656;23.232;2023-02-16T04:32:32;95006.16;;;-0.18;68.15
61345;BME280;47216;42.656;23.232;2023-02-16T04:34:58;95012.59;;;-0.14;68.68
61345;BME280;47216;42.656;23.232;2023-02-16T04:37:25;95009.22;;;-0.14;68.10
61345;BME280;47216;42.656;23.232;2023-02-16T04:39:53;95011.31;;;-0.10;67.82
61345;BME280;47216;42.656;23.232;2023-02-16T04:42:19;95012.44;;;-0.12;68.01
61345;BME280;47216;42.656;23.232;2023-02-16T04:44:45;95017.06;;;-0.16;67.70
61345;BME280;47216;42.656;23.232;2023-02-16T04:47:12;95022.19;;;-0.16;67.64
61345;BME280;47216;42.656;23.232;2023-02-16T04:49:39;95025.34;;;-0.22;67.65
61345;BME280;47216;42.656;23.232;2023-02-16T04:52:05;95023.38;;;-0.28;67.58
61345;BME280;47216;42.656;23.232;2023-02-16T04:54:32;95030.84;;;-0.43;67.74
61345;BME280;47216;42.656;23.232;2023-02-16T04:57:00;95027.75;;;-0.47;68.44
61345;BME280;47216;42.656;23.232;2023-02-16T04:59:27;95028.13;;;-0.41;68.44
61345;BME280;47216;42.656;23.232;2023-02-16T05:01:53;95024.25;;;-0.46;68.76
61345;BME280;47216;42.656;23.232;2023-02-16T05:04:21;95026.66;;;-0.44;68.81
61345;BME280;47216;42.656;23.232;2023-02-16T05:06:47;95033.44;;;-0.61;69.55
61345;BME280;47216;42.656;23.232;2023-02-16T05:09:14;95030.28;;;-0.55;69.65
61345;BME280;47216;42.656;23.232;2023-02-16T05:11:40;95030.50;;;-0.66;69.73
61345;BME280;47216;42.656;23.232;2023-02-16T05:14:27;95034.66;;;-0.65;69.82
61345;BME280;47216;42.656;23.232;2023-02-16T05:17:11;95023.69;;;-0.57;70.29
61345;BME280;47216;42.656;23.232;2023-02-16T05:19:38;95038.09;;;-0.56;69.38
61345;BME280;47216;42.656;23.232;2023-02-16T05:22:05;95033.31;;;-0.77;70.33
61345;BME280;47216;42.656;23.232;2023-02-16T05:24:32;95037.88;;;-0.63;69.77
61345;BME280;47216;42.656;23.232;2023-02-16T05:27:00;95034.09;;;-0.59;69.59
61345;BME280;47216;42.656;23.232;2023-02-16T05:29:28;95038.78;;;-0.72;69.77
61345;BME280;47216;42.656;23.232;2023-02-16T05:31:55;95040.25;;;-0.70;69.25
61345;BME280;47216;42.656;23.232;2023-02-16T05:34:21;95048.34;;;-0.74;70.23
61345;BME280;47216;42.656;23.232;2023-02-16T05:36:48;95040.75;;;-0.66;69.73
61345;BME280;47216;42.656;23.232;2023-02-16T05:39:14;95039.44;;;-0.70;69.95
61345;BME280;47216;42.656;23.232;2023-02-16T05:41:41;95040.97;;;-0.77;70.57
61345;BME280;47216;42.656;23.232;2023-02-16T05:44:08;95044.66;;;-0.80;70.37
61345;BME280;47216;42.656;23.232;2023-02-16T05:46:36;95048.00;;;-0.79;70.71
61345;BME280;47216;42.656;23.232;2023-02-16T05:49:03;95050.91;;;-0.74;70.69
61345;BME280;47216;42.656;23.232;2023-02-16T05:51:30;95048.47;;;-0.58;70.45
61345;BME280;47216;42.656;23.232;2023-02-16T05:53:57;95052.13;;;-0.43;69.66
61345;BME280;47216;42.656;23.232;2023-02-16T05:56:24;95044.00;;;-0.38;69.64
61345;BME280;47216;42.656;23.232;2023-02-16T05:58:50;95045.66;;;-0.29;69.51
61345;BME280;47216;42.656;23.232;2023-02-16T06:01:17;95055.47;;;-0.24;69.16
61345;BME280;47216;42.656;23.232;2023-02-16T06:03:46;95061.25;;;-0.22;69.06
61345;BME280;47216;42.656;23.232;2023-02-16T06:06:12;95062.25;;;-0.15;68.52
61345;BME280;47216;42.656;23.232;2023-02-16T06:08:39;95057.84;;;-0.05;68.45
61345;BME280;47216;42.656;23.232;2023-02-16T06:11:05;95065.88;;;0.01;68.68
61345;BME280;47216;42.656;23.232;2023-02-16T06:13:52;95065.88;;;0.01;68.91
61345;BME280;47216;42.656;23.232;2023-02-16T06:16:22;95073.34;;;-0.06;69.00
61345;BME280;47216;42.656;23.232;2023-02-16T06:18:50;95072.28;;;-0.22;69.75
61345;BME280;47216;42.656;23.232;2023-02-16T06:21:16;95079.25;;;-0.14;69.95
61345;BME280;47216;42.656;23.232;2023-02-16T06:23:43;95072.94;;;0.07;69.73
61345;BME280;47216;42.656;23.232;2023-02-16T06:26:09;95074.81;;;-0.04;69.43
61345;BME280;47216;42.656;23.232;2023-02-16T06:28:36;95073.50;;;-0.08;69.89
61345;BME280;47216;42.656;23.232;2023-02-16T06:31:02;95078.50;;;0.02;69.78
61345;BME280;47216;42.656;23.232;2023-02-16T06:33:29;95076.13;;;0.01;69.45
61345;BME280;47216;42.656;23.232;2023-02-16T06:35:57;95078.38;;;0.04;69.57
61345;BME280;47216;42.656;23.232;2023-02-16T06:38:23;95081.34;;;0.17;69.58
61345;BME280;47216;42.656;23.232;2023-02-16T06:40:50;95084.00;;;0.41;68.98
61345;BME280;47216;42.656;23.232;2023-02-16T06:43:17;95082.16;;;0.60;68.83
61345;BME280;47216;42.656;23.232;2023-02-16T06:45:43;95084.63;;;0.78;68.46
61345;BME280;47216;42.656;23.232;2023-02-16T06:48:10;95081.63;;;0.91;68.33
61345;BME280;47216;42.656;23.232;2023-02-16T06:50:36;95083.72;;;1.03;68.23
61345;BME280;47216;42.656;23.232;2023-02-16T06:53:04;95087.75;;;1.14;68.25
61345;BME280;47216;42.656;23.232;2023-02-16T06:55:30;95084.25;;;1.23;67.95
61345;BME280;47216;42.656;23.232;2023-02-16T06:58:00;95082.97;;;1.36;68.38
61345;BME280;47216;42.656;23.232;2023-02-16T07:00:27;95088.44;;;1.49;68.58
61345;BME280;47216;42.656;23.232;2023-02-16T07:02:54;95078.78;;;1.59;68.35
61345;BME280;47216;42.656;23.232;2023-02-16T07:05:21;95074.28;;;1.70;68.08
61345;BME280;47216;42.656;23.232;2023-02-16T07:07:47;95077.81;;;1.77;67.45
61345;BME280;47216;42.656;23.232;2023-02-16T07:10:15;95072.34;;;1.88;67.29
61345;BME280;47216;42.656;23.232;2023-02-16T07:12:42;95059.47;;;1.96;67.69
61345;BME280;47216;42.656;23.232;2023-02-16T07:15:08;95068.75;;;2.05;67.36
61345;BME280;47216;42.656;23.232;2023-02-16T07:17:35;95061.84;;;2.14;66.63
61345;BME280;47216;42.656;23.232;2023-02-16T07:20:02;95060.22;;;2.21;66.40
61345;BME280;47216;42.656;23.232;2023-02-16T07:22:30;95064.38;;;2.30;65.57
61345;BME280;47216;42.656;23.232;2023-02-16T07:24:56;95053.56;;;2.35;66.03
61345;BME280;47216;42.656;23.232;2023-02-16T07:27:26;95053.22;;;2.46;65.90
61345;BME280;47216;42.656;23.232;2023-02-16T07:29:52;95048.84;;;2.55;65.70
61345;BME280;47216;42.656;23.232;2023-02-16T07:32:19;95049.13;;;2.60;65.69
61345;BME280;47216;42.656;23.232;2023-02-16T07:34:46;95051.03;;;2.66;66.08
61345;BME280;47216;42.656;23.232;2023-02-16T07:37:12;95051.19;;;2.73;65.14
61345;BME280;47216;42.656;23.232;2023-02-16T07:39:39;95046.94;;;2.80;65.51
61345;BME280;47216;42.656;23.232;2023-02-16T07:42:05;95045.31;;;2.79;66.49
61345;BME280;47216;42.656;23.232;2023-02-16T07:44:33;95045.66;;;2.84;65.83
61345;BME280;47216;42.656;23.232;2023-02-16T07:47:00;95040.09;;;2.95;66.22
61345;BME280;47216;42.656;23.232;2023-02-16T07:49:26;95049.38;;;3.05;65.38
61345;BME280;47216;42.656;23.232;2023-02-16T07:51:53;95046.75;;;3.13;65.75
61345;BME280;47216;42.656;23.232;2023-02-16T07:54:19;95056.38;;;3.19;65.52
61345;BME280;47216;42.656;23.232;2023-02-16T07:59:50;95056.59;;;3.32;65.75
61345;BME280;47216;42.656;23.232;2023-02-16T08:02:17;95058.50;;;3.39;64.69
61345;BME280;47216;42.656;23.232;2023-02-16T08:04:44;95061.03;;;3.47;64.92
61345;BME280;47216;42.656;23.232;2023-02-16T08:07:11;95050.63;;;3.55;64.73
61345;BME280;47216;42.656;23.232;2023-02-16T08:09:38;95055.53;;;3.65;63.78
61345;BME280;47216;42.656;23.232;2023-02-16T08:12:06;95062.41;;;3.72;64.70
61345;BME280;47216;42.656;23.232;2023-02-16T08:14:33;95064.81;;;3.74;63.71
61345;BME280;47216;42.656;23.232;2023-02-16T08:17:01;95058.16;;;3.79;63.48
61345;BME280;47216;42.656;23.232;2023-02-16T08:19:27;95059.59;;;3.82;64.26
61345;BME280;47216;42.656;23.232;2023-02-16T08:21:54;95060.50;;;3.89;63.32
61345;BME280;47216;42.656;23.232;2023-02-16T08:24:21;95063.88;;;3.90;63.85
61345;BME280;47216;42.656;23.232;2023-02-16T08:26:49;95066.38;;;3.98;62.83
61345;BME280;47216;42.656;23.232;2023-02-16T08:29:17;95069.41;;;4.02;63.59
61345;BME280;47216;42.656;23.232;2023-02-16T08:31:44;95070.50;;;4.07;63.16
61345;BME280;47216;42.656;23.232;2023-02-16T08:34:12;95070.75;;;4.12;62.71
61345;BME280;47216;42.656;23.232;2023-02-16T08:36:40;95068.00;;;4.14;62.83
61345;BME280;47216;42.656;23.232;2023-02-16T08:39:10;95067.81;;;4.15;62.41
61345;BME280;47216;42.656;23.232;2023-02-16T08:41:37;95067.13;;;4.21;62.56
61345;BME280;47216;42.656;23.232;2023-02-16T08:44:04;95071.91;;;4.25;62.78
61345;BME280;47216;42.656;23.232;2023-02-16T08:46:31;95071.75;;;4.26;62.73
61345;BME280;47216;42.656;23.232;2023-02-16T08:48:58;95071.56;;;4.28;62.45
61345;BME280;47216;42.656;23.232;2023-02-16T08:51:27;95065.88;;;4.32;63.61
61345;BME280;47216;42.656;23.232;2023-02-16T08:53:55;95068.34;;;4.40;63.76
61345;BME280;47216;42.656;23.232;2023-02-16T08:56:22;95061.31;;;4.49;62.37
61345;BME280;47216;42.656;23.232;2023-02-16T08:58:49;95056.41;;;4.54;62.57
61345;BME280;47216;42.656;23.232;2023-02-16T09:01:16;95058.53;;;4.66;61.54
61345;BME280;47216;42.656;23.232;2023-02-16T09:03:43;95058.53;;;4.66;62.09
61345;BME280;47216;42.656;23.232;2023-02-16T09:06:11;95062.63;;;4.75;61.47
61345;BME280;47216;42.656;23.232;2023-02-16T09:08:40;95050.75;;;4.80;60.98
61345;BME280;47216;42.656;23.232;2023-02-16T09:11:07;95061.63;;;4.91;61.40
61345;BME280;47216;42.656;23.232;2023-02-16T09:13:35;95058.88;;;4.92;60.97
61345;BME280;47216;42.656;23.232;2023-02-16T09:16:02;95057.94;;;5.00;61.37
61345;BME280;47216;42.656;23.232;2023-02-16T09:18:29;95059.19;;;5.04;60.52
61345;BME280;47216;42.656;23.232;2023-02-16T09:20:57;95059.06;;;5.12;60.94
61345;BME280;47216;42.656;23.232;2023-02-16T09:23:24;95051.56;;;5.17;61.26
61345;BME280;47216;42.656;23.232;2023-02-16T09:25:52;95050.75;;;5.17;60.73
61345;BME280;47216;42.656;23.232;2023-02-16T09:28:19;95053.97;;;5.19;61.07
61345;BME280;47216;42.656;23.232;2023-02-16T09:30:45;95047.28;;;5.24;60.59
61345;BME280;47216;42.656;23.232;2023-02-16T09:33:12;95040.00;;;5.35;59.87
61345;BME280;47216;42.656;23.232;2023-02-16T09:35:39;95045.59;;;5.38;60.21
61345;BME280;47216;42.656;23.232;2023-02-16T09:38:05;95044.63;;;5.39;60.12
61345;BME280;47216;42.656;23.232;2023-02-16T09:40:32;95041.16;;;5.54;59.75
61345;BME280;47216;42.656;23.232;2023-02-16T09:43:03;95034.47;;;5.66;59.16
61345;BME280;47216;42.656;23.232;2023-02-16T09:45:37;95033.75;;;5.72;59.41
61345;BME280;47216;42.656;23.232;2023-02-16T09:48:04;95028.44;;;5.80;58.95
61345;BME280;47216;42.656;23.232;2023-02-16T09:50:31;95027.81;;;5.78;59.00
61345;BME280;47216;42.656;23.232;2023-02-16T09:52:59;95022.69;;;5.85;59.33
61345;BME280;47216;42.656;23.232;2023-02-16T09:55:30;95018.16;;;5.94;58.71
61345;BME280;47216;42.656;23.232;2023-02-16T09:58:03;95020.06;;;6.06;58.35
61345;BME280;47216;42.656;23.232;2023-02-16T10:00:39;95015.72;;;6.14;58.25
61345;BME280;47216;42.656;23.232;2023-02-16T10:03:12;95006.22;;;6.21;58.04
61345;BME280;47216;42.656;23.232;2023-02-16T10:05:46;95012.78;;;6.23;58.04
61345;BME280;47216;42.656;23.232;2023-02-16T10:08:18;95005.88;;;6.37;56.98
61345;BME280;47216;42.656;23.232;2023-02-16T10:10:48;95003.13;;;6.39;57.52
61345;BME280;47216;42.656;23.232;2023-02-16T10:13:19;94998.19;;;6.50;57.08
61345;BME280;47216;42.656;23.232;2023-02-16T10:15:49;94996.00;;;6.54;57.63
61345;BME280;47216;42.656;23.232;2023-02-16T10:18:18;95005.22;;;6.70;57.76
61345;BME280;47216;42.656;23.232;2023-02-16T10:20:46;94990.88;;;6.74;56.95
61345;BME280;47216;42.656;23.232;2023-02-16T10:23:19;94993.31;;;6.82;55.84
61345;BME280;47216;42.656;23.232;2023-02-16T10:25:49;94987.31;;;6.88;55.71
61345;BME280;47216;42.656;23.232;2023-02-16T10:28:20;94984.16;;;6.93;55.93
61345;BME280;47216;42.656;23.232;2023-02-16T10:30:48;94984.59;;;7.03;55.47
61345;BME280;47216;42.656;23.232;2023-02-16T10:33:26;94988.16;;;7.09;55.64
61345;BME280;47216;42.656;23.232;2023-02-16T10:35:55;94985.78;;;7.07;55.99
61345;BME280;47216;42.656;23.232;2023-02-16T10:38:25;94972.25;;;7.19;55.29
61345;BME280;47216;42.656;23.232;2023-02-16T10:40:56;94970.63;;;7.18;55.48
61345;BME280;47216;42.656;23.232;2023-02-16T10:43:29;94970.25;;;7.34;55.24
61345;BME280;47216;42.656;23.232;2023-02-16T10:46:01;94969.47;;;7.40;54.83
61345;BME280;47216;42.656;23.232;2023-02-16T10:48:29;94967.47;;;7.49;54.40
61345;BME280;47216;42.656;23.232;2023-02-16T10:50:56;94969.66;;;7.58;54.59
61345;BME280;47216;42.656;23.232;2023-02-16T10:53:28;94964.25;;;7.67;54.68
61345;BME280;47216;42.656;23.232;2023-02-16T10:55:58;94960.25;;;7.71;54.15
61345;BME280;47216;42.656;23.232;2023-02-16T10:58:28;94953.66;;;7.75;54.52
61345;BME280;47216;42.656;23.232;2023-02-16T11:01:04;94951.06;;;7.88;54.88
61345;BME280;47216;42.656;23.232;2023-02-16T11:03:33;94954.81;;;7.92;53.31
61345;BME280;47216;42.656;23.232;2023-02-16T11:06:11;94948.84;;;7.92;53.35
61345;BME280;47216;42.656;23.232;2023-02-16T11:08:45;94944.66;;;7.97;53.35
61345;BME280;47216;42.656;23.232;2023-02-16T11:11:13;94937.41;;;8.06;53.53
61345;BME280;47216;42.656;23.232;2023-02-16T11:13:41;94943.00;;;8.10;53.74
61345;BME280;47216;42.656;23.232;2023-02-16T11:16:17;94935.56;;;8.20;53.18
61345;BME280;47216;42.656;23.232;2023-02-16T11:18:45;94939.34;;;8.31;53.78
61345;BME280;47216;42.656;23.232;2023-02-16T11:21:14;94932.53;;;8.36;52.48
61345;BME280;47216;42.656;23.232;2023-02-16T11:23:43;94935.31;;;8.48;52.40
61345;BME280;47216;42.656;23.232;2023-02-16T11:26:20;94928.66;;;8.52;52.78
61345;BME280;47216;42.656;23.232;2023-02-16T11:28:49;94918.47;;;8.57;51.98
61345;BME280;47216;42.656;23.232;2023-02-16T11:31:17;94922.03;;;8.63;52.54
61345;BME280;47216;42.656;23.232;2023-02-16T11:33:53;94911.97;;;8.73;51.94
61345;BME280;47216;42.656;23.232;2023-02-16T11:36:23;94913.91;;;8.84;52.20
61345;BME280;47216;42.656;23.232;2023-02-16T11:38:55;94913.06;;;8.91;51.90
61345;BME280;47216;42.656;23.232;2023-02-16T11:41:22;94906.44;;;8.95;51.43
61345;BME280;47216;42.656;23.232;2023-02-16T11:43:51;94904.84;;;8.94;50.98
61345;BME280;47216;42.656;23.232;2023-02-16T11:46:18;94904.59;;;9.02;51.36
61345;BME280;47216;42.656;23.232;2023-02-16T11:48:45;94903.75;;;9.08;50.93
61345;BME280;47216;42.656;23.232;2023-02-16T11:51:12;94902.06;;;9.20;50.41
61345;BME280;47216;42.656;23.232;2023-02-16T11:53:40;94906.41;;;9.27;49.84
61345;BME280;47216;42.656;23.232;2023-02-16T11:56:08;94904.75;;;9.32;51.20
61345;BME280;47216;42.656;23.232;2023-02-16T11:58:37;94890.66;;;9.40;50.41
61345;BME280;47216;42.656;23.232;2023-02-16T12:01:07;94893.81;;;9.49;50.41
61345;BME280;47216;42.656;23.232;2023-02-16T12:03:47;94897.59;;;9.53;50.12
61345;BME280;47216;42.656;23.232;2023-02-16T12:06:22;94886.09;;;9.60;50.06
61345;BME280;47216;42.656;23.232;2023-02-16T12:08:55;94890.44;;;9.66;49.47
61345;BME280;47216;42.656;23.232;2023-02-16T12:11:27;94884.00;;;9.69;48.30
61345;BME280;47216;42.656;23.232;2023-02-16T12:13:59;94879.72;;;9.75;49.61
61345;BME280;47216;42.656;23.232;2023-02-16T12:16:31;94865.41;;;9.84;48.80
61345;BME280;47216;42.656;23.232;2023-02-16T12:19:08;94876.34;;;9.93;49.10
61345;BME280;47216;42.656;23.232;2023-02-16T12:21:40;94864.69;;;9.95;48.38
61345;BME280;47216;42.656;23.232;2023-02-16T12:24:12;94866.44;;;10.01;48.03
61345;BME280;47216;42.656;23.232;2023-02-16T12:26:45;94862.00;;;10.02;48.67
61345;BME280;47216;42.656;23.232;2023-02-16T12:29:19;94863.38;;;10.04;49.24
61345;BME280;47216;42.656;23.232;2023-02-16T12:31:57;94853.00;;;10.16;48.11
61345;BME280;47216;42.656;23.232;2023-02-16T12:34:27;94848.75;;;10.22;48.57
61345;BME280;47216;42.656;23.232;2023-02-16T12:36:58;94852.50;;;10.26;48.69
61345;BME280;47216;42.656;23.232;2023-02-16T12:39:29;94841.59;;;10.36;47.94
61345;BME280;47216;42.656;23.232;2023-02-16T12:42:04;94842.28;;;10.43;47.62
61345;BME280;47216;42.656;23.232;2023-02-16T12:44:34;94841.16;;;10.50;47.36
61345;BME280;47216;42.656;23.232;2023-02-16T12:47:05;94839.63;;;10.61;47.58
61345;BME280;47216;42.656;23.232;2023-02-16T12:49:41;94837.59;;;10.63;47.58
61345;BME280;47216;42.656;23.232;2023-02-16T12:52:10;94827.94;;;10.64;47.16
61345;BME280;47216;42.656;23.232;2023-02-16T12:54:39;94829.09;;;10.68;46.50
61345;BME280;47216;42.656;23.232;2023-02-16T12:57:09;94819.34;;;10.75;46.39
61345;BME280;47216;42.656;23.232;2023-02-16T12:59:38;94822.44;;;10.84;46.73
61345;BME280;47216;42.656;23.232;2023-02-16T13:02:10;94819.84;;;10.84;45.71
61345;BME280;47216;42.656;23.232;2023-02-16T13:04:41;94822.53;;;10.77;45.87
61345;BME280;47216;42.656;23.232;2023-02-16T13:07:11;94823.81;;;10.86;46.07
61345;BME280;47216;42.656;23.232;2023-02-16T13:09:43;94815.06;;;10.92;46.44
61345;BME280;47216;42.656;23.232;2023-02-16T13:12:16;94819.38;;;10.99;46.30
61345;BME280;47216;42.656;23.232;2023-02-16T13:14:49;94812.25;;;11.06;46.36